Time;durP1;ratioP1;P1;durP2;ratioP2;P2;SDS_P1;SDS_P2;PMS_P1;PMS_P2;Temp;Humidity;BMP_temperature;BMP_pressure;BME280_temperature;BME280_humidity;BME280_pressure;Samples;Min_cycle;Max_cycle;Signal;HPM_P1;HPM_P2
2023/05/29 00:01:44;;;;;;;8.68;2.65;;;17.40;70.00;;;;;;5114980;28;20036;-84
2023/05/29 00:04:11;;;;;;;6.25;2.25;;;17.40;69.90;;;;;;5114863;28;20429;-84
2023/05/29 00:06:37;;;;;;;6.93;2.42;;;17.30;69.90;;;;;;5115344;28;20387;-84
2023/05/29 00:09:04;;;;;;;5.55;1.95;;;17.20;69.50;;;;;;5114821;28;20114;-84
2023/05/29 00:11:29;;;;;;;6.75;2.83;;;17.20;69.50;;;;;;5114856;28;20035;-84
2023/05/29 00:13:56;;;;;;;6.10;2.10;;;17.10;69.40;;;;;;5114716;28;20491;-84
2023/05/29 00:16:23;;;;;;;7.53;2.35;;;17.10;69.10;;;;;;5097957;28;20023;-84
2023/05/29 00:18:49;;;;;;;10.85;2.25;;;17.10;69.10;;;;;;5114778;28;20128;-84
2023/05/29 00:21:15;;;;;;;8.23;2.50;;;17.00;69.10;;;;;;5131700;27;20110;-84
2023/05/29 00:23:41;;;;;;;11.23;2.00;;;16.90;68.90;;;;;;5131751;27;20058;-84
2023/05/29 00:26:07;;;;;;;6.75;2.15;;;16.90;68.90;;;;;;5114744;28;20111;-84
2023/05/29 00:28:34;;;;;;;9.82;2.30;;;16.80;68.60;;;;;;5097794;28;20540;-84
2023/05/29 00:30:59;;;;;;;9.20;1.80;;;16.80;68.50;;;;;;5131694;27;20388;-84
2023/05/29 00:33:25;;;;;;;7.82;2.17;;;16.70;68.10;;;;;;5114545;28;20034;-84
2023/05/29 00:35:51;;;;;;;7.75;2.00;;;16.70;68.20;;;;;;5097702;28;20034;-84
2023/05/29 00:38:17;;;;;;;8.93;2.38;;;16.70;67.90;;;;;;5114551;28;20107;-84
2023/05/29 00:40:42;;;;;;;10.90;2.33;;;16.60;67.70;;;;;;5114581;28;20023;-84
2023/05/29 00:43:08;;;;;;;7.53;1.90;;;16.60;67.60;;;;;;5097543;28;20476;-84
2023/05/29 00:45:36;;;;;;;9.95;2.25;;;16.50;67.60;;;;;;5115015;27;20023;-84
2023/05/29 00:48:03;;;;;;;4.85;1.70;;;16.50;67.70;;;;;;5118444;27;20039;-84
2023/05/29 00:50:30;;;;;;;9.90;2.47;;;16.40;67.70;;;;;;5118361;27;20519;-84
2023/05/29 00:52:55;;;;;;;6.38;2.28;;;16.30;67.70;;;;;;5136434;27;20094;-84
2023/05/29 00:55:22;;;;;;;8.10;1.83;;;16.30;67.70;;;;;;5118171;27;20567;-84
2023/05/29 00:57:49;;;;;;;9.25;1.67;;;16.30;67.90;;;;;;5135190;27;20035;-84
2023/05/29 01:00:16;;;;;;;10.82;1.88;;;16.20;67.90;;;;;;5118293;27;20047;-84
2023/05/29 01:02:44;;;;;;;9.18;2.08;;;16.20;67.90;;;;;;5118051;27;20513;-84
2023/05/29 01:05:11;;;;;;;8.60;1.80;;;16.20;68.10;;;;;;5134950;27;20064;-84
2023/05/29 01:07:37;;;;;;;6.93;1.90;;;16.20;68.20;;;;;;5136391;27;20023;-84
2023/05/29 01:10:04;;;;;;;10.02;2.20;;;16.20;68.30;;;;;;5117913;27;20027;-84
2023/05/29 01:12:59;;;;;;;7.40;2.00;;;16.10;68.30;;;;;;5117804;27;20549;-84
2023/05/29 01:15:38;;;;;;;9.70;2.05;;;16.10;68.50;;;;;;5134767;27;20436;-84
2023/05/29 01:18:27;;;;;;;7.82;2.13;;;16.00;68.50;;;;;;5134644;27;20098;-84
2023/05/29 01:21:11;;;;;;;10.50;1.98;;;15.90;68.50;;;;;;5134653;27;20058;-84
2023/05/29 01:24:02;;;;;;;6.03;1.65;;;15.90;68.70;;;;;;5134681;27;20429;-84
2023/05/29 01:26:51;;;;;;;7.80;2.05;;;15.90;68.80;;;;;;5134545;27;20026;-84
2023/05/29 01:29:24;;;;;;;8.75;1.92;;;15.80;68.80;;;;;;5134647;27;20098;-84
2023/05/29 01:31:51;;;;;;;7.57;2.15;;;15.80;69.10;;;;;;5134587;27;20100;-84
2023/05/29 01:34:17;;;;;;;6.47;1.65;;;15.80;69.20;;;;;;5100770;27;20027;-84
2023/05/29 01:36:43;;;;;;;9.88;1.80;;;15.70;69.10;;;;;;5117400;27;20438;-84
2023/05/29 01:39:10;;;;;;;9.32;1.80;;;15.70;69.20;;;;;;5135646;27;20089;-84
2023/05/29 01:41:36;;;;;;;12.77;2.10;;;15.70;69.20;;;;;;5100364;27;20035;-84
2023/05/29 01:44:11;;;;;;;10.18;2.58;;;15.70;69.20;;;;;;5117091;27;20087;-84
2023/05/29 01:46:38;;;;;;;9.43;2.35;;;15.60;69.10;;;;;;5134308;27;20011;-84
2023/05/29 01:49:04;;;;;;;7.93;2.42;;;15.60;69.20;;;;;;5135148;27;20500;-84
2023/05/29 01:51:31;;;;;;;12.23;1.67;;;15.50;69.30;;;;;;5100137;27;20083;-84
2023/05/29 01:53:58;;;;;;;9.90;2.00;;;15.50;69.50;;;;;;5117261;27;20337;-84
2023/05/29 01:56:26;;;;;;;10.85;1.58;;;15.50;69.50;;;;;;5117055;27;20118;-84
2023/05/29 01:58:54;;;;;;;10.32;2.05;;;15.50;69.60;;;;;;5133229;27;20027;-84
2023/05/29 02:01:21;;;;;;;10.95;2.05;;;15.60;69.60;;;;;;5133880;27;20080;-84
2023/05/29 02:03:47;;;;;;;7.88;1.88;;;15.60;69.50;;;;;;5133818;27;20084;-84
2023/05/29 02:06:12;;;;;;;6.65;1.48;;;15.50;69.60;;;;;;5116755;27;20027;-84
2023/05/29 02:08:38;;;;;;;8.63;1.58;;;15.40;69.80;;;;;;5099892;27;20062;-84
2023/05/29 02:11:04;;;;;;;9.23;1.63;;;15.40;69.90;;;;;;5116676;27;20027;-84
2023/05/29 02:13:29;;;;;;;5.65;1.73;;;15.40;69.80;;;;;;5099732;27;20027;-84
2023/05/29 02:15:55;;;;;;;10.55;2.28;;;15.30;70.00;;;;;;5116489;27;20476;-84
2023/05/29 02:18:21;;;;;;;7.68;1.60;;;15.30;70.20;;;;;;5116581;27;20027;-84
2023/05/29 02:20:47;;;;;;;6.45;1.48;;;15.30;70.20;;;;;;5116388;27;20027;-84
2023/05/29 02:23:12;;;;;;;11.00;2.00;;;15.30;70.30;;;;;;5116308;27;20023;-84
2023/05/29 02:25:40;;;;;;;8.82;1.70;;;15.20;70.20;;;;;;5099572;27;20035;-84
2023/05/29 02:28:05;;;;;;;9.00;2.03;;;15.20;70.40;;;;;;5133307;27;20030;-84
2023/05/29 02:30:31;;;;;;;12.30;2.42;;;15.20;70.30;;;;;;5116330;27;20023;-84
2023/05/29 02:32:57;;;;;;;10.55;1.67;;;15.20;70.50;;;;;;5099187;27;20026;-84
2023/05/29 02:35:23;;;;;;;8.18;2.53;;;15.20;70.70;;;;;;5099248;27;20036;-84
2023/05/29 02:37:52;;;;;;;6.95;1.70;;;15.10;71.00;;;;;;5116159;27;20035;-84
2023/05/29 02:40:18;;;;;;;11.35;2.10;;;15.10;71.30;;;;;;5133185;27;20023;-84
2023/05/29 02:42:44;;;;;;;7.15;1.92;;;15.00;71.30;;;;;;5099158;27;20026;-84
2023/05/29 02:45:10;;;;;;;12.85;1.88;;;15.00;71.50;;;;;;5115946;27;20023;-84
2023/05/29 02:47:37;;;;;;;6.18;1.50;;;15.00;71.50;;;;;;5115842;27;20122;-84
2023/05/29 02:50:04;;;;;;;6.75;1.63;;;15.00;71.70;;;;;;5116021;27;20031;-84
2023/05/29 02:52:30;;;;;;;9.02;2.13;;;14.90;71.60;;;;;;5098932;27;20023;-84
2023/05/29 02:54:56;;;;;;;7.07;1.67;;;14.90;71.70;;;;;;5115951;27;20031;-84
2023/05/29 02:57:22;;;;;;;7.43;1.80;;;14.90;71.80;;;;;;5115791;27;20085;-84
2023/05/29 02:59:48;;;;;;;7.80;1.90;;;14.90;71.80;;;;;;5132686;27;20023;-84
2023/05/29 03:02:14;;;;;;;8.68;2.03;;;14.90;72.10;;;;;;5115831;27;20055;-84
2023/05/29 03:04:40;;;;;;;9.40;2.13;;;14.80;72.10;;;;;;5098682;27;20039;-84
2023/05/29 03:07:06;;;;;;;9.00;1.85;;;14.80;72.20;;;;;;5132762;27;20016;-84
2023/05/29 03:09:32;;;;;;;9.10;1.92;;;14.80;72.50;;;;;;5132694;27;20027;-84
2023/05/29 03:11:58;;;;;;;11.48;2.10;;;14.70;72.60;;;;;;5132617;27;20088;-84
2023/05/29 03:14:23;;;;;;;7.05;1.67;;;14.70;72.70;;;;;;5098330;27;20436;-83
2023/05/29 03:16:50;;;;;;;8.20;1.63;;;14.60;72.80;;;;;;5098485;27;20023;-83
2023/05/29 03:19:16;;;;;;;10.07;2.40;;;14.60;72.90;;;;;;5115583;27;20031;-84
2023/05/29 03:21:41;;;;;;;9.15;1.83;;;14.60;73.00;;;;;;5115395;27;20031;-84
2023/05/29 03:24:07;;;;;;;12.52;2.17;;;14.60;73.10;;;;;;5115306;27;20034;-84
2023/05/29 03:26:32;;;;;;;9.30;2.05;;;14.50;73.20;;;;;;5098309;27;20404;-83
2023/05/29 03:28:58;;;;;;;5.38;1.70;;;14.50;73.20;;;;;;5115426;27;20019;-84
2023/05/29 03:31:24;;;;;;;6.70;2.15;;;14.50;73.20;;;;;;5098303;27;20023;-84
2023/05/29 03:33:49;;;;;;;7.53;2.08;;;14.50;73.30;;;;;;5115208;27;20026;-84
2023/05/29 03:36:18;;;;;;;8.88;1.70;;;14.40;73.20;;;;;;5133680;27;20027;-83
2023/05/29 03:38:44;;;;;;;8.57;2.38;;;14.50;73.30;;;;;;5099039;28;20027;-84
2023/05/29 03:41:10;;;;;;;7.78;1.88;;;14.50;73.30;;;;;;5115144;28;20557;-83
2023/05/29 03:43:36;;;;;;;8.13;1.75;;;14.40;73.40;;;;;;5098034;28;20023;-84
2023/05/29 03:46:02;;;;;;;9.90;2.15;;;14.40;73.20;;;;;;5115087;28;20038;-84
2023/05/29 03:48:27;;;;;;;7.90;1.90;;;14.50;73.30;;;;;;5114777;28;20043;-83
2023/05/29 03:50:53;;;;;;;5.07;1.58;;;14.40;73.10;;;;;;5132183;27;20031;-84
2023/05/29 03:53:19;;;;;;;8.82;1.95;;;14.40;73.20;;;;;;5098094;28;20042;-83
2023/05/29 03:55:44;;;;;;;8.15;1.80;;;14.40;73.30;;;;;;5098129;28;20019;-83
2023/05/29 03:58:12;;;;;;;9.85;1.98;;;14.40;73.40;;;;;;5132264;28;20108;-83
2023/05/29 04:00:38;;;;;;;10.43;1.45;;;14.30;73.30;;;;;;5098413;28;20043;-84
2023/05/29 04:03:04;;;;;;;8.82;1.90;;;14.30;73.40;;;;;;5115046;28;20027;-83
2023/05/29 04:05:29;;;;;;;9.95;1.90;;;14.30;74.40;;;;;;5115203;28;20020;-83
2023/05/29 04:07:56;;;;;;;9.35;2.03;;;14.20;73.70;;;;;;5097982;28;20020;-83
2023/05/29 04:10:22;;;;;;;11.32;2.25;;;14.20;73.60;;;;;;5114794;28;20054;-83
2023/05/29 04:12:47;;;;;;;6.30;1.98;;;14.20;73.80;;;;;;5114942;28;20027;-84
2023/05/29 04:15:13;;;;;;;14.63;2.83;;;14.10;73.90;;;;;;5097706;28;20076;-84
2023/05/29 04:17:39;;;;;;;8.93;1.90;;;14.20;74.10;;;;;;5131991;27;20361;-84
2023/05/29 04:20:08;;;;;;;13.70;2.00;;;14.10;74.10;;;;;;5097913;28;20043;-84
2023/05/29 04:22:37;;;;;;;9.43;2.13;;;14.20;74.10;;;;;;5102400;27;20452;-83
2023/05/29 04:25:04;;;;;;;11.85;1.98;;;14.20;74.10;;;;;;5135764;27;20031;-84
2023/05/29 04:27:37;;;;;;;11.50;1.90;;;14.20;74.20;;;;;;5118747;27;20027;-84
2023/05/29 04:30:06;;;;;;;9.27;2.20;;;14.20;74.20;;;;;;5135767;27;20371;-82
2023/05/29 04:32:32;;;;;;;8.38;1.60;;;14.20;74.40;;;;;;5119223;27;20031;-83
2023/05/29 04:35:02;;;;;;;9.27;2.92;;;14.20;74.30;;;;;;5101656;27;20080;-83
2023/05/29 04:37:32;;;;;;;8.18;1.50;;;14.10;74.40;;;;;;5119093;27;20039;-83
2023/05/29 04:39:57;;;;;;;7.63;1.65;;;14.20;74.30;;;;;;5118917;27;20099;-83
2023/05/29 04:42:24;;;;;;;9.13;2.20;;;14.10;74.50;;;;;;5136773;27;20020;-83
2023/05/29 04:44:52;;;;;;;8.95;3.28;;;14.10;75.30;;;;;;5118517;27;20519;-83
2023/05/29 04:47:18;;;;;;;11.43;1.92;;;14.10;74.60;;;;;;5101658;27;20030;-83
2023/05/29 04:49:49;;;;;;;9.10;2.05;;;14.10;74.60;;;;;;5135515;27;20040;-83
2023/05/29 04:52:15;;;;;;;10.63;2.13;;;14.00;74.60;;;;;;5118739;27;20115;-83
2023/05/29 04:54:41;;;;;;;7.18;1.60;;;14.00;74.60;;;;;;5135418;27;20519;-83
2023/05/29 04:57:08;;;;;;;14.13;2.45;;;13.90;74.80;;;;;;5118096;27;20114;-84
2023/05/29 04:59:34;;;;;;;8.35;2.03;;;14.00;75.00;;;;;;5118301;27;20499;-83
2023/05/29 05:02:00;;;;;;;13.05;2.33;;;14.00;74.90;;;;;;5118000;27;20039;-83
2023/05/29 05:04:26;;;;;;;8.55;2.00;;;14.00;74.90;;;;;;5118095;27;20023;-83
2023/05/29 05:06:51;;;;;;;11.30;1.92;;;14.10;74.90;;;;;;5100949;27;20483;-83
2023/05/29 05:09:17;;;;;;;7.93;1.88;;;14.10;74.80;;;;;;5117830;27;20469;-84
2023/05/29 05:11:43;;;;;;;9.05;1.80;;;14.00;75.00;;;;;;5117876;27;20034;-84
2023/05/29 05:14:08;;;;;;;11.18;2.97;;;14.00;74.80;;;;;;5117668;27;20110;-84
2023/05/29 05:16:34;;;;;;;6.55;2.10;;;14.10;74.70;;;;;;5117785;27;20050;-84
2023/05/29 05:19:00;;;;;;;12.05;1.83;;;14.10;74.80;;;;;;5117691;27;20069;-84
2023/05/29 05:21:25;;;;;;;9.90;1.67;;;14.10;75.00;;;;;;5117733;27;20098;-83
2023/05/29 05:23:51;;;;;;;10.95;2.15;;;14.10;75.00;;;;;;5100617;27;20446;-84
2023/05/29 05:26:16;;;;;;;8.55;1.80;;;14.10;74.90;;;;;;5100564;27;20113;-83
2023/05/29 05:28:42;;;;;;;7.72;2.30;;;14.10;75.10;;;;;;5134589;27;20118;-83
2023/05/29 05:31:08;;;;;;;6.38;1.60;;;14.10;75.10;;;;;;5100657;27;20027;-83
2023/05/29 05:33:34;;;;;;;8.63;1.73;;;14.10;75.00;;;;;;5116052;27;20461;-83
2023/05/29 05:36:00;;;;;;;13.20;2.70;;;14.10;75.00;;;;;;5134578;27;20050;-83
2023/05/29 05:38:26;;;;;;;9.02;1.73;;;14.10;75.20;;;;;;5100435;27;20528;-83
2023/05/29 05:40:51;;;;;;;8.57;1.73;;;14.10;74.90;;;;;;5134227;27;20015;-83
2023/05/29 05:43:17;;;;;;;7.07;1.77;;;14.10;75.10;;;;;;5134457;27;20528;-83
2023/05/29 05:45:42;;;;;;;7.75;1.77;;;14.10;75.90;;;;;;5100185;27;20123;-83
2023/05/29 05:48:09;;;;;;;9.93;2.10;;;14.10;74.90;;;;;;5100012;27;20053;-83
2023/05/29 05:50:35;;;;;;;8.63;1.88;;;14.10;74.70;;;;;;5134198;27;20117;-83
2023/05/29 05:53:00;;;;;;;10.93;1.92;;;14.20;74.70;;;;;;5100044;27;20467;-83
2023/05/29 05:55:27;;;;;;;8.48;1.85;;;14.20;74.70;;;;;;5099975;27;20016;-84
2023/05/29 05:57:54;;;;;;;7.47;2.00;;;14.20;74.70;;;;;;5100059;27;20504;-84
2023/05/29 06:00:19;;;;;;;8.43;1.98;;;14.20;74.40;;;;;;5133934;27;20544;-83
2023/05/29 06:02:45;;;;;;;12.98;2.67;;;14.10;74.80;;;;;;5134078;27;20051;-84
2023/05/29 06:05:11;;;;;;;7.55;1.98;;;14.10;74.90;;;;;;5127195;27;20039;-84
2023/05/29 06:07:37;;;;;;;12.73;2.22;;;14.10;75.20;;;;;;5133345;27;20059;-84
2023/05/29 06:10:04;;;;;;;6.82;1.88;;;14.10;75.00;;;;;;5130485;27;20059;-84
2023/05/29 06:12:30;;;;;;;12.45;2.22;;;14.20;74.70;;;;;;5111924;28;20118;-83
2023/05/29 06:14:55;;;;;;;10.70;2.38;;;14.20;74.50;;;;;;5111314;28;20429;-83
2023/05/29 06:17:21;;;;;;;9.70;1.92;;;14.20;74.70;;;;;;5128131;27;20043;-83
2023/05/29 06:19:47;;;;;;;12.65;2.03;;;14.20;74.60;;;;;;5095570;28;20030;-84
2023/05/29 06:22:15;;;;;;;7.88;1.73;;;14.30;74.30;;;;;;5094328;28;20380;-84
2023/05/29 06:24:40;;;;;;;8.90;2.03;;;14.30;74.20;;;;;;5113768;28;20468;-83
2023/05/29 06:27:06;;;;;;;8.73;1.75;;;14.20;74.20;;;;;;5079051;28;20031;-83
2023/05/29 06:29:32;;;;;;;8.70;2.30;;;14.20;74.20;;;;;;5095857;28;20053;-83
2023/05/29 06:31:58;;;;;;;10.07;2.08;;;14.20;74.20;;;;;;5095987;28;20024;-83
2023/05/29 06:34:24;;;;;;;10.40;2.03;;;14.20;74.30;;;;;;5078829;28;20541;-83
2023/05/29 06:36:50;;;;;;;8.13;1.80;;;14.30;74.30;;;;;;5079017;28;20400;-83
2023/05/29 06:39:17;;;;;;;6.75;1.80;;;14.30;74.50;;;;;;5078916;28;20029;-83
2023/05/29 06:41:43;;;;;;;8.93;1.80;;;14.40;74.30;;;;;;5079250;28;20049;-83
2023/05/29 06:44:09;;;;;;;8.60;1.92;;;14.40;74.40;;;;;;5095335;28;20122;-83
2023/05/29 06:46:35;;;;;;;8.32;2.15;;;14.40;74.10;;;;;;5129794;27;20037;-83
2023/05/29 06:49:00;;;;;;;7.65;1.73;;;14.40;73.80;;;;;;5095477;28;20483;-83
2023/05/29 06:51:26;;;;;;;10.95;2.20;;;14.40;74.30;;;;;;5078846;28;20092;-83
2023/05/29 06:53:52;;;;;;;9.13;1.90;;;14.50;74.00;;;;;;5078893;28;20089;-83
2023/05/29 06:56:17;;;;;;;9.05;1.77;;;14.60;74.20;;;;;;5112348;28;20032;-83
2023/05/29 06:58:45;;;;;;;14.05;1.80;;;14.60;74.10;;;;;;5078621;28;20023;-83
2023/05/29 07:01:11;;;;;;;10.10;1.88;;;14.70;73.80;;;;;;5095587;28;20035;-83
2023/05/29 07:03:36;;;;;;;6.28;1.85;;;14.70;73.50;;;;;;5095230;28;20024;-83
2023/05/29 07:06:03;;;;;;;10.60;2.47;;;14.70;73.50;;;;;;5078450;28;20035;-83
2023/05/29 07:08:28;;;;;;;6.97;2.08;;;14.70;73.60;;;;;;5095153;28;20024;-83
2023/05/29 07:10:55;;;;;;;7.68;1.60;;;14.70;73.30;;;;;;5078584;28;20077;-82
2023/05/29 07:13:20;;;;;;;6.72;2.00;;;14.80;73.10;;;;;;5095206;28;20019;-83
2023/05/29 07:15:48;;;;;;;11.77;2.40;;;14.80;73.10;;;;;;5078193;28;20555;-83
2023/05/29 07:18:13;;;;;;;7.55;1.52;;;14.90;72.70;;;;;;5095093;28;20062;-83
2023/05/29 07:20:39;;;;;;;10.02;1.50;;;14.90;73.00;;;;;;5078273;28;20050;-83
2023/05/29 07:23:05;;;;;;;7.40;2.42;;;15.10;73.10;;;;;;5117666;27;20555;-83
2023/05/29 07:25:31;;;;;;;7.65;1.85;;;15.20;72.40;;;;;;5132318;27;20099;-83
2023/05/29 07:27:57;;;;;;;8.75;1.85;;;15.20;71.90;;;;;;5096560;27;20034;-83
2023/05/29 07:30:22;;;;;;;11.93;1.90;;;15.20;72.10;;;;;;5113284;27;20488;-83
2023/05/29 07:32:48;;;;;;;8.07;1.52;;;15.30;72.40;;;;;;5113729;27;20079;-83
2023/05/29 07:35:14;;;;;;;8.18;1.92;;;15.40;72.10;;;;;;5113428;28;20100;-83
2023/05/29 07:37:40;;;;;;;10.88;1.85;;;15.40;71.80;;;;;;5113890;27;20042;-83
2023/05/29 07:40:06;;;;;;;8.38;2.25;;;15.50;71.50;;;;;;5111337;28;20134;-83
2023/05/29 07:42:33;;;;;;;6.72;2.13;;;15.50;71.30;;;;;;5111555;28;20024;-83
2023/05/29 07:44:58;;;;;;;13.50;2.28;;;15.60;71.40;;;;;;5094785;28;20420;-83
2023/05/29 07:47:24;;;;;;;7.95;1.85;;;15.70;70.80;;;;;;5112029;28;20047;-83
2023/05/29 07:49:51;;;;;;;8.35;2.03;;;15.70;70.60;;;;;;5130129;28;20489;-83
2023/05/29 07:52:17;;;;;;;5.53;1.63;;;15.70;70.40;;;;;;5094650;28;20030;-83
2023/05/29 07:54:43;;;;;;;10.75;1.70;;;15.70;70.80;;;;;;5113892;27;20016;-83
2023/05/29 07:57:09;;;;;;;6.20;1.77;;;15.70;70.50;;;;;;5118447;27;20083;-83
2023/05/29 07:59:41;;;;;;;8.55;1.70;;;15.70;70.50;;;;;;5136435;27;20042;-83
2023/05/29 08:02:07;;;;;;;12.05;2.08;;;15.70;70.20;;;;;;5136212;27;20114;-83
2023/05/29 08:04:33;;;;;;;6.97;1.85;;;15.80;70.30;;;;;;5102250;27;20023;-83
2023/05/29 08:07:01;;;;;;;7.10;1.92;;;15.90;70.50;;;;;;5119096;27;20135;-83
2023/05/29 08:09:26;;;;;;;10.75;1.65;;;16.00;69.60;;;;;;5136037;27;20023;-84
2023/05/29 08:11:52;;;;;;;9.63;2.05;;;16.00;68.90;;;;;;5118987;27;20027;-83
2023/05/29 08:14:18;;;;;;;9.98;2.55;;;16.10;69.40;;;;;;5118821;27;20027;-83
2023/05/29 08:16:44;;;;;;;8.93;1.80;;;16.10;68.90;;;;;;5118937;27;20034;-84
2023/05/29 08:19:09;;;;;;;10.05;2.95;;;16.10;69.30;;;;;;5118931;27;20027;-84
2023/05/29 08:21:35;;;;;;;5.55;1.48;;;16.20;69.30;;;;;;5119029;27;20070;-83
2023/05/29 08:24:04;;;;;;;4.38;1.30;;;16.20;68.80;;;;;;5101883;27;20015;-83
2023/05/29 08:26:30;;;;;;;6.57;1.88;;;16.20;68.60;;;;;;5135798;27;20126;-84
2023/05/29 08:28:56;;;;;;;7.55;1.90;;;16.30;67.80;;;;;;5135817;27;20472;-83
2023/05/29 08:31:24;;;;;;;7.28;1.83;;;16.30;67.60;;;;;;5118641;27;20030;-84
2023/05/29 08:33:50;;;;;;;6.50;1.98;;;16.30;67.50;;;;;;5102428;27;20027;-84
2023/05/29 08:36:16;;;;;;;5.18;1.77;;;16.30;67.40;;;;;;5135678;27;20037;-84
2023/05/29 08:38:41;;;;;;;9.07;2.38;;;16.40;67.30;;;;;;5101607;27;20058;-84
2023/05/29 08:41:08;;;;;;;5.63;1.45;;;16.50;68.00;;;;;;5118413;27;20023;-84
2023/05/29 08:43:34;;;;;;;9.38;1.95;;;16.60;67.70;;;;;;5135634;27;20110;-84
2023/05/29 08:46:02;;;;;;;6.80;1.77;;;16.60;66.60;;;;;;5118445;27;20055;-84
2023/05/29 08:48:29;;;;;;;7.20;1.95;;;16.70;66.40;;;;;;5135316;27;20032;-84
2023/05/29 08:50:57;;;;;;;7.28;1.50;;;16.70;66.60;;;;;;5136664;27;20023;-84
2023/05/29 08:53:24;;;;;;;6.95;1.77;;;16.90;67.20;;;;;;5135322;27;20379;-83
2023/05/29 08:55:52;;;;;;;6.13;1.65;;;17.00;66.40;;;;;;5116790;27;20042;-84
2023/05/29 08:58:21;;;;;;;7.65;1.95;;;17.10;66.10;;;;;;5134781;27;20104;-84
2023/05/29 09:00:48;;;;;;;8.77;1.75;;;17.10;66.30;;;;;;5116423;27;20042;-84
2023/05/29 09:03:14;;;;;;;6.63;1.83;;;17.20;66.10;;;;;;5134737;27;20380;-84
2023/05/29 09:05:41;;;;;;;9.20;1.60;;;17.30;65.50;;;;;;5134736;27;20023;-84
2023/05/29 09:08:14;;;;;;;10.43;2.13;;;17.20;64.70;;;;;;5133669;27;20033;-84
2023/05/29 09:10:45;;;;;;;6.60;1.52;;;17.30;64.50;;;;;;5132592;27;20027;-85
2023/05/29 09:13:12;;;;;;;7.88;2.03;;;17.20;64.50;;;;;;5133423;27;20109;-84
2023/05/29 09:15:40;;;;;;;6.28;1.85;;;17.30;65.10;;;;;;5114866;27;20027;-84
2023/05/29 09:18:06;;;;;;;8.82;1.63;;;17.30;65.30;;;;;;5134053;27;20011;-84
2023/05/29 09:20:32;;;;;;;7.95;1.70;;;17.40;64.90;;;;;;5117549;27;20080;-84
2023/05/29 09:23:06;;;;;;;9.55;2.10;;;17.40;64.40;;;;;;5116082;27;20480;-84
2023/05/29 09:25:35;;;;;;;5.20;1.70;;;17.40;64.20;;;;;;5114681;27;20480;-84
2023/05/29 09:28:02;;;;;;;7.63;1.90;;;17.50;64.20;;;;;;5133982;27;20123;-84
2023/05/29 09:30:41;;;;;;;5.30;1.70;;;17.50;64.70;;;;;;5133932;27;20116;-85
2023/05/29 09:33:09;;;;;;;8.07;2.50;;;17.60;64.60;;;;;;5134581;27;20019;-84
2023/05/29 09:35:45;;;;;;;4.88;1.42;;;17.60;65.30;;;;;;5134381;27;20035;-85
2023/05/29 09:38:15;;;;;;;5.60;1.55;;;17.70;64.10;;;;;;5133257;27;20029;-84
2023/05/29 09:40:41;;;;;;;8.93;1.92;;;17.80;64.70;;;;;;5133824;27;20034;-85
2023/05/29 09:43:18;;;;;;;5.68;1.70;;;17.90;64.20;;;;;;5133749;27;20027;-84
2023/05/29 09:45:45;;;;;;;8.60;1.75;;;17.90;63.30;;;;;;5115277;27;20030;-88
2023/05/29 09:48:21;;;;;;;4.05;1.60;;;17.90;63.40;;;;;;5133235;27;20043;-85
2023/05/29 09:50:47;;;;;;;5.97;1.98;;;18.00;63.20;;;;;;5134987;27;20084;-85
2023/05/29 09:53:24;;;;;;;5.80;2.20;;;18.10;63.80;;;;;;5116502;27;20030;-85
2023/05/29 09:55:51;;;;;;;4.72;1.50;;;18.20;63.50;;;;;;5116469;27;20050;-85
2023/05/29 09:58:20;;;;;;;5.32;1.50;;;18.20;62.40;;;;;;5134024;27;20436;-85
2023/05/29 10:00:48;;;;;;;6.18;1.67;;;18.20;63.20;;;;;;5133866;27;20026;-85
2023/05/29 10:03:14;;;;;;;8.18;1.52;;;18.30;62.80;;;;;;5116795;27;20507;-85
2023/05/29 10:05:41;;;;;;;6.07;1.88;;;18.30;62.10;;;;;;5099262;27;20023;-85
2023/05/29 10:08:17;;;;;;;5.30;1.30;;;18.40;62.30;;;;;;5133368;27;20015;-84
2023/05/29 10:10:46;;;;;;;6.25;1.85;;;18.40;62.90;;;;;;5133888;27;20022;-85
2023/05/29 10:13:13;;;;;;;7.13;1.63;;;18.50;62.30;;;;;;5133828;27;20106;-85
2023/05/29 10:15:42;;;;;;;4.50;1.23;;;18.60;62.10;;;;;;5134082;27;20031;-84
2023/05/29 10:18:24;;;;;;;6.78;2.03;;;18.60;61.40;;;;;;5133191;27;20054;-85
2023/05/29 10:20:55;;;;;;;5.38;1.60;;;18.60;60.50;;;;;;5133712;27;20111;-85
2023/05/29 10:23:25;;;;;;;5.37;1.73;;;18.60;60.30;;;;;;5117201;27;20080;-85
2023/05/29 10:26:04;;;;;;;6.80;1.63;;;18.70;61.20;;;;;;5117210;27;20046;-84
2023/05/29 10:28:30;;;;;;;5.20;1.30;;;18.80;60.80;;;;;;5133498;27;20058;-85
2023/05/29 10:31:05;;;;;;;4.55;1.48;;;18.80;61.20;;;;;;5116407;27;20063;-85
2023/05/29 10:33:50;;;;;;;4.82;1.48;;;18.90;59.50;;;;;;5133320;27;20510;-85
2023/05/29 10:36:24;;;;;;;5.07;1.50;;;18.90;58.40;;;;;;5134528;27;20029;-84
2023/05/29 10:38:50;;;;;;;5.43;1.40;;;18.90;59.60;;;;;;5132773;27;20181;-85
2023/05/29 10:41:28;;;;;;;7.53;1.55;;;19.00;60.00;;;;;;5115041;27;20038;-85
2023/05/29 10:43:55;;;;;;;8.23;1.77;;;19.00;58.80;;;;;;5133116;27;20048;-85
2023/05/29 10:46:20;;;;;;;6.72;2.20;;;19.00;59.10;;;;;;5116084;27;20138;-85
2023/05/29 10:48:49;;;;;;;4.20;1.50;;;19.00;58.60;;;;;;5132921;27;20508;-85
2023/05/29 10:51:26;;;;;;;4.47;1.52;;;19.10;58.50;;;;;;5115816;27;20027;-85
2023/05/29 10:53:52;;;;;;;4.97;1.95;;;19.10;58.50;;;;;;5134197;27;20027;-85
2023/05/29 10:56:29;;;;;;;3.58;1.65;;;19.10;58.70;;;;;;5115772;27;20027;-85
2023/05/29 10:58:57;;;;;;;5.15;1.80;;;19.20;58.40;;;;;;5133148;27;20050;-85
2023/05/29 11:01:25;;;;;;;7.85;2.00;;;19.20;58.70;;;;;;5115712;27;20073;-84
2023/05/29 11:03:52;;;;;;;5.55;1.80;;;19.20;58.90;;;;;;5132761;27;20026;-85
2023/05/29 11:06:23;;;;;;;7.45;1.50;;;19.30;58.80;;;;;;5132941;27;20019;-85
2023/05/29 11:08:56;;;;;;;6.75;1.65;;;19.40;58.50;;;;;;5134102;27;20052;-85
2023/05/29 11:11:28;;;;;;;5.00;1.70;;;19.40;58.80;;;;;;5132741;27;20114;-85
2023/05/29 11:13:55;;;;;;;5.65;1.60;;;19.40;58.90;;;;;;5132703;27;20027;-85
2023/05/29 11:16:28;;;;;;;5.90;1.70;;;19.40;59.30;;;;;;5115426;27;20027;-85
2023/05/29 11:18:55;;;;;;;6.47;1.77;;;19.50;58.50;;;;;;5132649;27;20118;-85
2023/05/29 11:21:29;;;;;;;5.93;1.50;;;19.50;58.80;;;;;;5132473;27;20026;-85
2023/05/29 11:24:06;;;;;;;4.18;1.50;;;19.60;58.50;;;;;;5132608;27;20030;-85
2023/05/29 11:26:32;;;;;;;5.82;1.65;;;19.60;59.30;;;;;;5115972;27;20026;-85
2023/05/29 11:29:10;;;;;;;8.35;2.40;;;19.60;57.40;;;;;;5132407;27;20476;-85
2023/05/29 11:31:36;;;;;;;7.35;1.80;;;19.70;57.70;;;;;;5132373;27;20023;-85
2023/05/29 11:34:05;;;;;;;3.28;1.50;;;19.80;58.00;;;;;;5115332;28;20080;-85
2023/05/29 11:36:34;;;;;;;4.65;1.50;;;19.70;57.40;;;;;;5132180;27;20031;-85
2023/05/29 11:39:01;;;;;;;4.75;1.42;;;19.70;56.90;;;;;;5132182;27;20034;-85
2023/05/29 11:41:27;;;;;;;6.72;1.75;;;19.70;57.50;;;;;;5115223;27;20023;-85
2023/05/29 11:43:57;;;;;;;8.85;1.75;;;19.80;58.30;;;;;;5115216;28;20023;-85
2023/05/29 11:46:23;;;;;;;4.63;1.40;;;19.90;58.00;;;;;;5132161;27;20022;-85
2023/05/29 11:48:48;;;;;;;9.25;1.88;;;20.00;57.40;;;;;;5114879;28;20467;-85
2023/05/29 11:51:15;;;;;;;6.93;1.90;;;20.00;56.90;;;;;;5115011;28;20027;-85
2023/05/29 11:53:47;;;;;;;4.13;1.80;;;20.10;56.60;;;;;;5115103;28;20106;-85
2023/05/29 11:56:12;;;;;;;5.03;1.80;;;20.10;56.60;;;;;;5132072;28;20027;-85
2023/05/29 11:58:39;;;;;;;6.22;2.13;;;20.20;56.30;;;;;;5115161;28;20035;-85
2023/05/29 12:01:07;;;;;;;6.20;2.20;;;20.20;55.50;;;;;;5131956;28;20387;-85
2023/05/29 12:03:43;;;;;;;4.72;1.65;;;20.30;56.10;;;;;;5115106;28;20451;-85
2023/05/29 12:06:12;;;;;;;5.80;1.58;;;20.30;56.30;;;;;;5131976;28;20015;-85
2023/05/29 12:08:39;;;;;;;8.65;2.30;;;20.40;55.90;;;;;;5131987;27;20500;-85
2023/05/29 12:11:05;;;;;;;4.90;1.50;;;20.40;55.20;;;;;;5115072;28;20031;-85
2023/05/29 12:13:31;;;;;;;4.47;1.45;;;20.40;53.00;;;;;;5097944;28;20503;-86
2023/05/29 12:16:00;;;;;;;8.07;2.03;;;20.40;52.90;;;;;;5098038;28;20058;-86
2023/05/29 12:18:27;;;;;;;5.30;1.50;;;20.40;53.10;;;;;;5132018;28;20495;-85
2023/05/29 12:21:03;;;;;;;4.22;1.40;;;20.50;53.80;;;;;;5114800;28;20048;-86
2023/05/29 12:23:29;;;;;;;5.82;1.95;;;20.40;53.70;;;;;;5133179;27;20388;-85
2023/05/29 12:25:56;;;;;;;5.57;1.70;;;20.50;54.20;;;;;;5131979;28;20023;-85
2023/05/29 12:28:22;;;;;;;4.63;1.58;;;20.50;53.20;;;;;;5131683;28;20540;-86
2023/05/29 12:30:51;;;;;;;6.05;1.55;;;20.50;51.90;;;;;;5133587;27;20015;-86
2023/05/29 12:33:29;;;;;;;4.53;1.85;;;20.50;52.00;;;;;;5133116;27;20021;-86
2023/05/29 12:35:55;;;;;;;5.88;1.60;;;20.50;52.20;;;;;;5114629;28;20400;-86
2023/05/29 12:38:22;;;;;;;5.95;1.42;;;20.50;51.50;;;;;;5132007;28;20023;-85
2023/05/29 12:40:49;;;;;;;7.78;1.92;;;20.50;51.50;;;;;;5131614;27;20023;-85
2023/05/29 12:43:16;;;;;;;3.70;1.77;;;20.50;50.60;;;;;;5101039;27;20476;-85
2023/05/29 12:45:42;;;;;;;3.85;1.23;;;20.50;51.10;;;;;;5118285;27;20460;-85
2023/05/29 12:48:09;;;;;;;5.85;2.10;;;20.50;52.30;;;;;;5118272;27;20092;-86